sensor_id;sensor_type;location;lat;lon;timestamp;pressure;altitude;pressure_sealevel;temperature;humidity
4469;BME280;2247;42.666;23.292;2023-04-01T00:01:20;93502.69;;;16.28;47.12
4469;BME280;2247;42.666;23.292;2023-04-01T00:03:47;93504.34;;;16.32;46.52
4469;BME280;2247;42.666;23.292;2023-04-01T00:06:15;93497.16;;;16.33;47.12
4469;BME280;2247;42.666;23.292;2023-04-01T00:08:43;93506.94;;;16.53;46.43
4469;BME280;2247;42.666;23.292;2023-04-01T00:11:12;93503.75;;;16.60;46.32
4469;BME280;2247;42.666;23.292;2023-04-01T00:13:39;93502.03;;;16.64;45.88
4469;BME280;2247;42.666;23.292;2023-04-01T00:16:07;93506.63;;;16.54;46.60
4469;BME280;2247;42.666;23.292;2023-04-01T00:18:34;93502.88;;;16.55;46.14
4469;BME280;2247;42.666;23.292;2023-04-01T00:21:00;93507.94;;;16.48;46.67
4469;BME280;2247;42.666;23.292;2023-04-01T00:23:27;93510.00;;;16.31;46.45
4469;BME280;2247;42.666;23.292;2023-04-01T00:25:54;93509.31;;;16.22;46.93
4469;BME280;2247;42.666;23.292;2023-04-01T00:28:22;93512.81;;;16.13;46.54
4469;BME280;2247;42.666;23.292;2023-04-01T00:30:49;93499.03;;;15.99;46.45
4469;BME280;2247;42.666;23.292;2023-04-01T00:33:16;93507.41;;;15.89;48.01
4469;BME280;2247;42.666;23.292;2023-04-01T00:35:44;93511.88;;;15.56;48.89
4469;BME280;2247;42.666;23.292;2023-04-01T00:38:11;93506.91;;;15.46;48.33
4469;BME280;2247;42.666;23.292;2023-04-01T00:40:40;93506.69;;;15.30;48.96
4469;BME280;2247;42.666;23.292;2023-04-01T00:43:12;93498.41;;;15.31;49.02
4469;BME280;2247;42.666;23.292;2023-04-01T00:45:42;93472.53;;;14.99;49.58
4469;BME280;2247;42.666;23.292;2023-04-01T00:48:11;93479.78;;;15.11;49.14
4469;BME280;2247;42.666;23.292;2023-04-01T00:50:41;93480.31;;;15.04;49.63
4469;BME280;2247;42.666;23.292;2023-04-01T00:53:09;93486.25;;;15.01;49.90
4469;BME280;2247;42.666;23.292;2023-04-01T00:55:41;93485.38;;;14.88;48.92
4469;BME280;2247;42.666;23.292;2023-04-01T00:58:13;93466.97;;;14.83;49.62
4469;BME280;2247;42.666;23.292;2023-04-01T01:00:42;93470.88;;;14.86;49.75
4469;BME280;2247;42.666;23.292;2023-04-01T01:03:09;93459.44;;;14.94;49.73
4469;BME280;2247;42.666;23.292;2023-04-01T01:05:52;93425.59;;;14.62;50.06
4469;BME280;2247;42.666;23.292;2023-04-01T01:08:28;93453.03;;;14.66;50.82
4469;BME280;2247;42.666;23.292;2023-04-01T01:10:57;93451.53;;;14.47;50.76
4469;BME280;2247;42.666;23.292;2023-04-01T01:13:27;93440.63;;;14.40;51.32
4469;BME280;2247;42.666;23.292;2023-04-01T01:16:00;93444.41;;;14.31;51.42
4469;BME280;2247;42.666;23.292;2023-04-01T01:18:34;93420.91;;;14.12;50.94
4469;BME280;2247;42.666;23.292;2023-04-01T01:21:28;93445.50;;;14.21;50.85
4469;BME280;2247;42.666;23.292;2023-04-01T01:24:22;93438.19;;;14.18;50.77
4469;BME280;2247;42.666;23.292;2023-04-01T01:26:58;93432.28;;;14.04;51.63
4469;BME280;2247;42.666;23.292;2023-04-01T01:30:01;93420.34;;;13.89;51.21
4469;BME280;2247;42.666;23.292;2023-04-01T01:35:39;93419.88;;;13.96;50.84
4469;BME280;2247;42.666;23.292;2023-04-01T01:38:10;93408.81;;;13.94;51.11
4469;BME280;2247;42.666;23.292;2023-04-01T01:40:41;93430.22;;;14.18;50.46
4469;BME280;2247;42.666;23.292;2023-04-01T01:43:11;93418.84;;;14.17;50.49
4469;BME280;2247;42.666;23.292;2023-04-01T01:45:44;93416.38;;;14.21;50.14
4469;BME280;2247;42.666;23.292;2023-04-01T01:48:12;93427.28;;;14.19;50.56
4469;BME280;2247;42.666;23.292;2023-04-01T01:50:41;93416.47;;;14.33;50.03
4469;BME280;2247;42.666;23.292;2023-04-01T01:53:10;93407.50;;;14.17;49.53
4469;BME280;2247;42.666;23.292;2023-04-01T01:55:38;93396.91;;;14.17;49.74
4469;BME280;2247;42.666;23.292;2023-04-01T01:58:13;93399.19;;;14.27;48.96
4469;BME280;2247;42.666;23.292;2023-04-01T02:00:43;93397.16;;;14.41;49.33
4469;BME280;2247;42.666;23.292;2023-04-01T02:03:12;93389.00;;;14.46;48.64
4469;BME280;2247;42.666;23.292;2023-04-01T02:05:42;93396.22;;;14.96;47.89
4469;BME280;2247;42.666;23.292;2023-04-01T02:08:13;93392.53;;;15.09;47.28
4469;BME280;2247;42.666;23.292;2023-04-01T02:10:45;93390.28;;;14.99;46.30
4469;BME280;2247;42.666;23.292;2023-04-01T02:13:18;93381.53;;;14.98;46.19
4469;BME280;2247;42.666;23.292;2023-04-01T02:15:50;93379.22;;;14.97;46.11
4469;BME280;2247;42.666;23.292;2023-04-01T02:18:22;93371.44;;;14.92;46.56
4469;BME280;2247;42.666;23.292;2023-04-01T02:20:51;93379.47;;;15.04;45.99
4469;BME280;2247;42.666;23.292;2023-04-01T02:23:18;93378.69;;;15.04;46.66
4469;BME280;2247;42.666;23.292;2023-04-01T02:25:46;93363.81;;;14.90;45.31
4469;BME280;2247;42.666;23.292;2023-04-01T02:28:14;93378.38;;;15.05;45.61
4469;BME280;2247;42.666;23.292;2023-04-01T02:30:47;93386.66;;;15.04;45.71
4469;BME280;2247;42.666;23.292;2023-04-01T02:33:15;93397.03;;;15.17;46.48
4469;BME280;2247;42.666;23.292;2023-04-01T02:35:43;93389.50;;;15.40;46.33
4469;BME280;2247;42.666;23.292;2023-04-01T02:38:12;93383.00;;;15.50;45.48
4469;BME280;2247;42.666;23.292;2023-04-01T02:40:43;93386.28;;;15.55;45.11
4469;BME280;2247;42.666;23.292;2023-04-01T02:43:11;93384.22;;;15.61;45.67
4469;BME280;2247;42.666;23.292;2023-04-01T02:45:38;93391.50;;;15.64;45.66
4469;BME280;2247;42.666;23.292;2023-04-01T02:48:05;93395.03;;;15.56;45.97
4469;BME280;2247;42.666;23.292;2023-04-01T02:50:32;93390.31;;;15.61;45.78
4469;BME280;2247;42.666;23.292;2023-04-01T02:52:59;93392.91;;;15.82;45.49
4469;BME280;2247;42.666;23.292;2023-04-01T02:55:29;93406.09;;;15.58;45.60
4469;BME280;2247;42.666;23.292;2023-04-01T02:57:56;93409.53;;;15.58;46.02
4469;BME280;2247;42.666;23.292;2023-04-01T03:00:23;93414.25;;;15.73;45.67
4469;BME280;2247;42.666;23.292;2023-04-01T03:02:50;93411.13;;;15.71;45.61
4469;BME280;2247;42.666;23.292;2023-04-01T03:05:17;93411.03;;;15.68;45.62
4469;BME280;2247;42.666;23.292;2023-04-01T03:07:45;93411.28;;;15.75;45.99
4469;BME280;2247;42.666;23.292;2023-04-01T03:10:12;93422.78;;;15.79;46.12
4469;BME280;2247;42.666;23.292;2023-04-01T03:12:40;93411.91;;;15.72;46.21
4469;BME280;2247;42.666;23.292;2023-04-01T03:15:10;93417.69;;;15.74;46.04
4469;BME280;2247;42.666;23.292;2023-04-01T03:17:37;93405.56;;;15.64;46.53
4469;BME280;2247;42.666;23.292;2023-04-01T03:20:05;93407.63;;;15.38;47.45
4469;BME280;2247;42.666;23.292;2023-04-01T03:22:33;93431.00;;;15.45;47.81
4469;BME280;2247;42.666;23.292;2023-04-01T03:25:00;93433.94;;;15.52;48.03
4469;BME280;2247;42.666;23.292;2023-04-01T03:27:28;93445.03;;;15.74;47.62
4469;BME280;2247;42.666;23.292;2023-04-01T03:29:56;93428.50;;;15.69;47.65
4469;BME280;2247;42.666;23.292;2023-04-01T03:32:23;93428.63;;;15.52;47.95
4469;BME280;2247;42.666;23.292;2023-04-01T03:34:50;93422.69;;;15.55;47.15
4469;BME280;2247;42.666;23.292;2023-04-01T03:37:17;93423.59;;;15.59;47.67
4469;BME280;2247;42.666;23.292;2023-04-01T03:39:52;93414.53;;;15.60;47.58
4469;BME280;2247;42.666;23.292;2023-04-01T03:42:25;93401.34;;;15.43;48.56
4469;BME280;2247;42.666;23.292;2023-04-01T03:44:52;93382.50;;;15.35;49.54
4469;BME280;2247;42.666;23.292;2023-04-01T03:47:20;93367.50;;;14.98;50.78
4469;BME280;2247;42.666;23.292;2023-04-01T03:49:47;93359.75;;;14.93;49.62
4469;BME280;2247;42.666;23.292;2023-04-01T03:52:15;93345.88;;;14.87;48.77
4469;BME280;2247;42.666;23.292;2023-04-01T03:54:42;93345.72;;;14.63;50.85
4469;BME280;2247;42.666;23.292;2023-04-01T03:57:09;93333.75;;;14.57;50.24
4469;BME280;2247;42.666;23.292;2023-04-01T03:59:36;93306.50;;;14.48;49.09
4469;BME280;2247;42.666;23.292;2023-04-01T04:02:14;93317.66;;;14.62;51.38
4469;BME280;2247;42.666;23.292;2023-04-01T04:44:39;93259.56;;;15.11;49.15
4469;BME280;2247;42.666;23.292;2023-04-01T04:47:10;93242.50;;;15.00;50.51
4469;BME280;2247;42.666;23.292;2023-04-01T04:52:17;93237.38;;;14.94;50.61
4469;BME280;2247;42.666;23.292;2023-04-01T04:54:47;93258.91;;;15.14;50.57
4469;BME280;2247;42.666;23.292;2023-04-01T05:00:01;93250.00;;;15.43;46.79
4469;BME280;2247;42.666;23.292;2023-04-01T05:05:17;93242.91;;;15.55;47.90
4469;BME280;2247;42.666;23.292;2023-04-01T05:07:44;93230.41;;;15.68;47.83
4469;BME280;2247;42.666;23.292;2023-04-01T05:10:11;93243.69;;;15.56;48.25
4469;BME280;2247;42.666;23.292;2023-04-01T05:12:39;93242.59;;;15.69;48.60
4469;BME280;2247;42.666;23.292;2023-04-01T05:15:09;93216.91;;;15.85;46.76
4469;BME280;2247;42.666;23.292;2023-04-01T05:25:22;93198.69;;;15.38;47.34
4469;BME280;2247;42.666;23.292;2023-04-01T05:27:49;93222.19;;;15.49;48.18
4469;BME280;2247;42.666;23.292;2023-04-01T05:30:18;93206.84;;;15.79;47.25
4469;BME280;2247;42.666;23.292;2023-04-01T05:32:45;93210.16;;;15.75;47.06
4469;BME280;2247;42.666;23.292;2023-04-01T05:35:12;93189.03;;;15.55;48.56
4469;BME280;2247;42.666;23.292;2023-04-01T05:37:39;93189.31;;;16.14;46.50
4469;BME280;2247;42.666;23.292;2023-04-01T05:40:07;93194.56;;;16.50;44.86
4469;BME280;2247;42.666;23.292;2023-04-01T05:42:34;93195.44;;;16.54;44.62
4469;BME280;2247;42.666;23.292;2023-04-01T05:45:01;93201.34;;;16.88;44.88
4469;BME280;2247;42.666;23.292;2023-04-01T05:47:29;93200.09;;;17.41;44.23
4469;BME280;2247;42.666;23.292;2023-04-01T05:49:56;93196.75;;;17.60;42.25
4469;BME280;2247;42.666;23.292;2023-04-01T05:52:24;93190.56;;;17.56;42.51
4469;BME280;2247;42.666;23.292;2023-04-01T05:54:51;93163.59;;;17.73;41.24
4469;BME280;2247;42.666;23.292;2023-04-01T05:57:18;93191.63;;;17.83;41.10
4469;BME280;2247;42.666;23.292;2023-04-01T05:59:44;93188.38;;;18.24;41.35
4469;BME280;2247;42.666;23.292;2023-04-01T06:02:12;93156.78;;;18.61;39.48
4469;BME280;2247;42.666;23.292;2023-04-01T06:04:40;93176.31;;;18.84;38.78
4469;BME280;2247;42.666;23.292;2023-04-01T06:07:15;93198.50;;;18.88;39.01
4469;BME280;2247;42.666;23.292;2023-04-01T06:09:43;93180.69;;;19.15;38.50
4469;BME280;2247;42.666;23.292;2023-04-01T06:12:40;93187.78;;;18.85;38.47
4469;BME280;2247;42.666;23.292;2023-04-01T06:15:16;93169.75;;;18.43;37.82
4469;BME280;2247;42.666;23.292;2023-04-01T06:18:03;93188.31;;;18.05;39.06
4469;BME280;2247;42.666;23.292;2023-04-01T06:20:42;93178.63;;;17.81;39.74
4469;BME280;2247;42.666;23.292;2023-04-01T06:23:35;93176.16;;;17.73;39.51
4469;BME280;2247;42.666;23.292;2023-04-01T06:26:23;93201.00;;;17.61;40.18
4469;BME280;2247;42.666;23.292;2023-04-01T06:29:17;93171.56;;;17.57;40.55
4469;BME280;2247;42.666;23.292;2023-04-01T06:32:05;93188.13;;;17.63;40.50
4469;BME280;2247;42.666;23.292;2023-04-01T06:34:52;93175.47;;;17.16;40.57
4469;BME280;2247;42.666;23.292;2023-04-01T06:37:45;93181.31;;;17.22;40.80
4469;BME280;2247;42.666;23.292;2023-04-01T06:40:44;93162.00;;;17.25;40.45
4469;BME280;2247;42.666;23.292;2023-04-01T06:43:18;93150.41;;;17.17;39.59
4469;BME280;2247;42.666;23.292;2023-04-01T06:45:58;93128.00;;;16.75;40.64
4469;BME280;2247;42.666;23.292;2023-04-01T06:48:45;93159.53;;;16.88;41.48
4469;BME280;2247;42.666;23.292;2023-04-01T06:51:24;93148.66;;;16.93;40.69
4469;BME280;2247;42.666;23.292;2023-04-01T06:54:01;93147.34;;;16.87;40.82
4469;BME280;2247;42.666;23.292;2023-04-01T06:56:31;93128.78;;;16.75;40.99
4469;BME280;2247;42.666;23.292;2023-04-01T06:59:02;93138.56;;;16.71;41.79
4469;BME280;2247;42.666;23.292;2023-04-01T07:01:35;93120.53;;;16.65;42.31
4469;BME280;2247;42.666;23.292;2023-04-01T07:04:06;93124.41;;;16.55;43.14
4469;BME280;2247;42.666;23.292;2023-04-01T07:06:39;93149.16;;;16.43;43.34
4469;BME280;2247;42.666;23.292;2023-04-01T07:09:13;93153.03;;;16.46;44.05
4469;BME280;2247;42.666;23.292;2023-04-01T07:11:43;93140.38;;;16.55;43.87
4469;BME280;2247;42.666;23.292;2023-04-01T07:14:16;93129.28;;;16.53;43.70
4469;BME280;2247;42.666;23.292;2023-04-01T07:16:45;93114.59;;;16.43;44.52
4469;BME280;2247;42.666;23.292;2023-04-01T07:19:20;93123.75;;;16.18;45.00
4469;BME280;2247;42.666;23.292;2023-04-01T07:21:51;93141.84;;;16.00;46.13
4469;BME280;2247;42.666;23.292;2023-04-01T07:24:21;93145.03;;;16.06;45.83
4469;BME280;2247;42.666;23.292;2023-04-01T07:26:54;93152.28;;;16.33;45.58
4469;BME280;2247;42.666;23.292;2023-04-01T07:29:21;93128.66;;;16.44;45.49
4469;BME280;2247;42.666;23.292;2023-04-01T07:32:09;93147.63;;;16.42;45.11
4469;BME280;2247;42.666;23.292;2023-04-01T07:34:48;93137.25;;;16.65;44.98
4469;BME280;2247;42.666;23.292;2023-04-01T07:37:22;93135.28;;;16.62;44.21
4469;BME280;2247;42.666;23.292;2023-04-01T07:40:00;93160.97;;;16.58;44.83
4469;BME280;2247;42.666;23.292;2023-04-01T07:42:39;93147.41;;;16.75;44.82
4469;BME280;2247;42.666;23.292;2023-04-01T07:45:17;93133.75;;;16.77;44.80
4469;BME280;2247;42.666;23.292;2023-04-01T07:47:58;93143.56;;;16.88;44.75
4469;BME280;2247;42.666;23.292;2023-04-01T07:50:29;93136.25;;;16.70;45.49
4469;BME280;2247;42.666;23.292;2023-04-01T07:53:05;93124.16;;;16.72;45.67
4469;BME280;2247;42.666;23.292;2023-04-01T07:55:40;93137.72;;;16.83;45.38
4469;BME280;2247;42.666;23.292;2023-04-01T07:58:14;93133.47;;;16.94;45.59
4469;BME280;2247;42.666;23.292;2023-04-01T08:00:48;93127.97;;;17.03;44.51
4469;BME280;2247;42.666;23.292;2023-04-01T08:03:31;93126.22;;;16.94;45.15
4469;BME280;2247;42.666;23.292;2023-04-01T08:06:06;93122.81;;;16.94;45.18
4469;BME280;2247;42.666;23.292;2023-04-01T08:08:45;93107.97;;;17.09;45.00
4469;BME280;2247;42.666;23.292;2023-04-01T08:11:25;93089.38;;;16.81;44.84
4469;BME280;2247;42.666;23.292;2023-04-01T08:14:03;93086.13;;;16.72;45.44
4469;BME280;2247;42.666;23.292;2023-04-01T08:16:35;93096.59;;;16.65;45.64
4469;BME280;2247;42.666;23.292;2023-04-01T08:19:12;93094.31;;;16.79;45.51
4469;BME280;2247;42.666;23.292;2023-04-01T08:21:44;93082.97;;;16.82;45.16
4469;BME280;2247;42.666;23.292;2023-04-01T08:24:23;93082.91;;;16.94;45.04
4469;BME280;2247;42.666;23.292;2023-04-01T08:26:55;93068.81;;;17.09;44.65
4469;BME280;2247;42.666;23.292;2023-04-01T08:29:26;93072.69;;;17.12;44.97
4469;BME280;2247;42.666;23.292;2023-04-01T08:32:01;93052.94;;;17.13;44.69
4469;BME280;2247;42.666;23.292;2023-04-01T08:34:34;93029.66;;;17.10;45.19
4469;BME280;2247;42.666;23.292;2023-04-01T08:37:06;93024.59;;;17.20;45.27
4469;BME280;2247;42.666;23.292;2023-04-01T08:39:35;93028.25;;;17.47;44.64
4469;BME280;2247;42.666;23.292;2023-04-01T08:42:18;92999.63;;;17.44;44.08
4469;BME280;2247;42.666;23.292;2023-04-01T08:45:14;93011.66;;;17.69;44.02
4469;BME280;2247;42.666;23.292;2023-04-01T08:47:54;93025.19;;;17.80;43.82
4469;BME280;2247;42.666;23.292;2023-04-01T08:51:00;93007.59;;;17.95;43.02
4469;BME280;2247;42.666;23.292;2023-04-01T08:53:44;93006.88;;;17.98;42.98
4469;BME280;2247;42.666;23.292;2023-04-01T08:56:17;93008.00;;;18.16;42.26
4469;BME280;2247;42.666;23.292;2023-04-01T08:59:10;93006.19;;;18.20;42.47
4469;BME280;2247;42.666;23.292;2023-04-01T09:02:11;93015.09;;;18.28;41.29
4469;BME280;2247;42.666;23.292;2023-04-01T09:04:58;93013.34;;;18.35;41.63
4469;BME280;2247;42.666;23.292;2023-04-01T09:07:40;93017.47;;;18.52;41.33
4469;BME280;2247;42.666;23.292;2023-04-01T09:10:30;93014.94;;;18.59;40.29
4469;BME280;2247;42.666;23.292;2023-04-01T09:13:26;93002.63;;;18.55;40.02
4469;BME280;2247;42.666;23.292;2023-04-01T09:16:12;93013.19;;;18.67;40.21
4469;BME280;2247;42.666;23.292;2023-04-01T09:19:15;93005.31;;;18.74;39.54
4469;BME280;2247;42.666;23.292;2023-04-01T09:22:02;92999.00;;;18.63;39.21
4469;BME280;2247;42.666;23.292;2023-04-01T09:24:45;92997.66;;;18.53;38.19
4469;BME280;2247;42.666;23.292;2023-04-01T09:27:26;92990.78;;;18.52;38.90
4469;BME280;2247;42.666;23.292;2023-04-01T09:33:12;92966.78;;;18.75;37.06
4469;BME280;2247;42.666;23.292;2023-04-01T09:35:49;92961.88;;;18.77;36.52
4469;BME280;2247;42.666;23.292;2023-04-01T09:38:26;92957.41;;;18.84;36.77
4469;BME280;2247;42.666;23.292;2023-04-01T09:40:56;92957.72;;;18.79;36.27
4469;BME280;2247;42.666;23.292;2023-04-01T09:43:29;92950.50;;;18.80;36.37
4469;BME280;2247;42.666;23.292;2023-04-01T09:46:17;92937.44;;;18.75;35.57
4469;BME280;2247;42.666;23.292;2023-04-01T09:51:49;92929.16;;;19.06;34.05
4469;BME280;2247;42.666;23.292;2023-04-01T09:54:34;92924.97;;;19.35;32.12
4469;BME280;2247;42.666;23.292;2023-04-01T09:57:37;92894.81;;;19.35;33.88
4469;BME280;2247;42.666;23.292;2023-04-01T10:09:57;92927.75;;;19.42;36.34
4469;BME280;2247;42.666;23.292;2023-04-01T10:19:12;92897.88;;;19.37;36.45
4469;BME280;2247;42.666;23.292;2023-04-01T10:22:24;92886.31;;;19.25;36.15
4469;BME280;2247;42.666;23.292;2023-04-01T10:25:33;92903.78;;;19.19;37.14
4469;BME280;2247;42.666;23.292;2023-04-01T10:28:25;92885.44;;;19.18;36.25
4469;BME280;2247;42.666;23.292;2023-04-01T10:34:44;92880.53;;;18.94;37.15
4469;BME280;2247;42.666;23.292;2023-04-01T10:37:34;92879.75;;;18.93;37.67
4469;BME280;2247;42.666;23.292;2023-04-01T10:40:35;92858.09;;;18.98;37.79
4469;BME280;2247;42.666;23.292;2023-04-01T10:49:28;92865.09;;;19.10;36.42
4469;BME280;2247;42.666;23.292;2023-04-01T10:52:42;92832.69;;;19.11;34.41
4469;BME280;2247;42.666;23.292;2023-04-01T10:58:30;92842.19;;;19.09;37.00
4469;BME280;2247;42.666;23.292;2023-04-01T11:01:36;92849.38;;;19.01;37.39
4469;BME280;2247;42.666;23.292;2023-04-01T11:17:07;92837.72;;;18.86;36.86
4469;BME280;2247;42.666;23.292;2023-04-01T11:25:46;92858.69;;;19.14;34.30
4469;BME280;2247;42.666;23.292;2023-04-01T11:31:46;92867.63;;;18.99;35.51
4469;BME280;2247;42.666;23.292;2023-04-01T11:34:33;92891.50;;;18.88;36.74
4469;BME280;2247;42.666;23.292;2023-04-01T11:37:16;92907.59;;;18.92;37.34
4469;BME280;2247;42.666;23.292;2023-04-01T11:39:59;92935.13;;;18.73;41.58
4469;BME280;2247;42.666;23.292;2023-04-01T11:42:39;92967.03;;;18.66;40.79
4469;BME280;2247;42.666;23.292;2023-04-01T11:45:32;93011.09;;;18.57;42.84
4469;BME280;2247;42.666;23.292;2023-04-01T11:48:18;93038.81;;;18.14;46.55
4469;BME280;2247;42.666;23.292;2023-04-01T11:53:53;93082.28;;;17.63;53.88
4469;BME280;2247;42.666;23.292;2023-04-01T11:56:38;93094.34;;;17.42;54.77
4469;BME280;2247;42.666;23.292;2023-04-01T11:59:31;93101.28;;;17.30;56.23
4469;BME280;2247;42.666;23.292;2023-04-01T12:02:12;93108.75;;;17.09;56.80
4469;BME280;2247;42.666;23.292;2023-04-01T12:05:00;93095.59;;;16.85;58.14
4469;BME280;2247;42.666;23.292;2023-04-01T12:07:45;93078.56;;;16.74;59.11
4469;BME280;2247;42.666;23.292;2023-04-01T12:10:21;93082.25;;;16.69;59.51
4469;BME280;2247;42.666;23.292;2023-04-01T12:12:57;93086.72;;;16.53;60.91
4469;BME280;2247;42.666;23.292;2023-04-01T12:15:34;93079.44;;;16.50;61.59
4469;BME280;2247;42.666;23.292;2023-04-01T12:18:12;93081.78;;;16.51;62.11
4469;BME280;2247;42.666;23.292;2023-04-01T12:20:49;93062.19;;;16.60;62.90
4469;BME280;2247;42.666;23.292;2023-04-01T12:23:38;93063.03;;;16.76;61.09
4469;BME280;2247;42.666;23.292;2023-04-01T12:26:25;93077.97;;;16.80;60.61
4469;BME280;2247;42.666;23.292;2023-04-01T12:29:11;93075.09;;;16.85;61.00
4469;BME280;2247;42.666;23.292;2023-04-01T12:31:52;93090.28;;;17.01;60.38
4469;BME280;2247;42.666;23.292;2023-04-01T12:34:49;93076.63;;;16.86;61.18
4469;BME280;2247;42.666;23.292;2023-04-01T12:37:32;93088.28;;;16.66;61.45
4469;BME280;2247;42.666;23.292;2023-04-01T12:40:18;93090.28;;;16.57;61.05
4469;BME280;2247;42.666;23.292;2023-04-01T12:43:06;93094.50;;;16.46;61.08
4469;BME280;2247;42.666;23.292;2023-04-01T12:45:46;93083.13;;;16.45;61.16
4469;BME280;2247;42.666;23.292;2023-04-01T12:48:45;93080.28;;;16.82;60.31
4469;BME280;2247;42.666;23.292;2023-04-01T12:51:38;93084.78;;;16.93;58.56
4469;BME280;2247;42.666;23.292;2023-04-01T13:00:16;93054.81;;;16.97;56.02
4469;BME280;2247;42.666;23.292;2023-04-01T13:03:02;93061.34;;;16.83;56.25
4469;BME280;2247;42.666;23.292;2023-04-01T13:05:46;93049.59;;;16.84;57.80
4469;BME280;2247;42.666;23.292;2023-04-01T13:08:32;93052.06;;;16.77;57.76
4469;BME280;2247;42.666;23.292;2023-04-01T13:11:09;93020.22;;;16.81;59.50
4469;BME280;2247;42.666;23.292;2023-04-01T13:13:52;92992.94;;;17.00;58.17
4469;BME280;2247;42.666;23.292;2023-04-01T13:16:26;92992.25;;;16.87;55.52
4469;BME280;2247;42.666;23.292;2023-04-01T13:18:58;92987.25;;;17.01;54.70
4469;BME280;2247;42.666;23.292;2023-04-01T13:21:38;93007.25;;;17.11;55.06
4469;BME280;2247;42.666;23.292;2023-04-01T13:24:17;92998.31;;;17.19;53.78
4469;BME280;2247;42.666;23.292;2023-04-01T13:26:56;93005.97;;;17.20;53.76
4469;BME280;2247;42.666;23.292;2023-04-01T13:29:31;92990.50;;;17.10;56.14
4469;BME280;2247;42.666;23.292;2023-04-01T13:32:12;92999.31;;;17.30;53.74
4469;BME280;2247;42.666;23.292;2023-04-01T13:34:53;92992.16;;;17.50;54.33
4469;BME280;2247;42.666;23.292;2023-04-01T13:37:37;92973.19;;;17.70;52.98
4469;BME280;2247;42.666;23.292;2023-04-01T13:40:22;92972.16;;;17.75;48.57
4469;BME280;2247;42.666;23.292;2023-04-01T13:42:55;92959.97;;;17.74;49.42
4469;BME280;2247;42.666;23.292;2023-04-01T13:45:30;92961.03;;;17.69;48.82
4469;BME280;2247;42.666;23.292;2023-04-01T13:48:27;92956.66;;;17.61;48.63
4469;BME280;2247;42.666;23.292;2023-04-01T13:51:26;92944.75;;;17.75;50.34
4469;BME280;2247;42.666;23.292;2023-04-01T13:54:10;92947.25;;;17.87;48.08
4469;BME280;2247;42.666;23.292;2023-04-01T13:56:47;92948.88;;;17.91;46.62
4469;BME280;2247;42.666;23.292;2023-04-01T13:59:46;92943.03;;;18.05;47.24
4469;BME280;2247;42.666;23.292;2023-04-01T14:02:29;92926.34;;;18.08;45.91
4469;BME280;2247;42.666;23.292;2023-04-01T14:05:15;92897.72;;;18.05;44.46
4469;BME280;2247;42.666;23.292;2023-04-01T14:08:00;92894.91;;;17.98;44.29
4469;BME280;2247;42.666;23.292;2023-04-01T14:10:36;92919.94;;;17.90;45.31
4469;BME280;2247;42.666;23.292;2023-04-01T14:13:12;92921.88;;;17.93;44.02
4469;BME280;2247;42.666;23.292;2023-04-01T14:16:00;92921.38;;;17.87;44.94
4469;BME280;2247;42.666;23.292;2023-04-01T14:18:56;92903.16;;;17.89;43.52
4469;BME280;2247;42.666;23.292;2023-04-01T14:24:30;92890.47;;;17.83;43.83
4469;BME280;2247;42.666;23.292;2023-04-01T14:30:36;92869.56;;;17.85;43.12
4469;BME280;2247;42.666;23.292;2023-04-01T14:33:21;92863.13;;;17.66;43.33
4469;BME280;2247;42.666;23.292;2023-04-01T14:36:01;92863.13;;;17.66;42.97
4469;BME280;2247;42.666;23.292;2023-04-01T14:38:51;92863.69;;;17.76;41.74
4469;BME280;2247;42.666;23.292;2023-04-01T14:41:32;92873.38;;;17.84;41.53
4469;BME280;2247;42.666;23.292;2023-04-01T14:44:22;92860.91;;;17.68;41.30
4469;BME280;2247;42.666;23.292;2023-04-01T14:47:08;92876.28;;;17.79;40.72
4469;BME280;2247;42.666;23.292;2023-04-01T14:49:42;92871.09;;;17.86;40.67
4469;BME280;2247;42.666;23.292;2023-04-01T14:52:14;92873.41;;;17.87;39.91
4469;BME280;2247;42.666;23.292;2023-04-01T14:54:44;92864.34;;;17.92;40.13
4469;BME280;2247;42.666;23.292;2023-04-01T14:57:14;92881.88;;;17.93;40.12
4469;BME280;2247;42.666;23.292;2023-04-01T14:59:48;92874.03;;;18.00;40.59
4469;BME280;2247;42.666;23.292;2023-04-01T15:02:31;92864.47;;;17.99;39.82
4469;BME280;2247;42.666;23.292;2023-04-01T15:05:10;92888.91;;;18.01;40.39
4469;BME280;2247;42.666;23.292;2023-04-01T15:08:03;92882.78;;;18.00;40.33
4469;BME280;2247;42.666;23.292;2023-04-01T15:13:38;92895.19;;;18.12;39.91
4469;BME280;2247;42.666;23.292;2023-04-01T15:16:18;92910.34;;;18.08;41.47
4469;BME280;2247;42.666;23.292;2023-04-01T15:18:56;92908.16;;;18.14;41.78
4469;BME280;2247;42.666;23.292;2023-04-01T15:21:49;92913.63;;;18.21;40.62
4469;BME280;2247;42.666;23.292;2023-04-01T15:24:21;92905.41;;;18.29;40.03
4469;BME280;2247;42.666;23.292;2023-04-01T15:27:14;92903.84;;;18.28;40.16
4469;BME280;2247;42.666;23.292;2023-04-01T15:30:13;92913.31;;;18.03;41.11
4469;BME280;2247;42.666;23.292;2023-04-01T15:32:53;92908.41;;;17.86;42.16
4469;BME280;2247;42.666;23.292;2023-04-01T15:35:34;92906.59;;;17.90;44.80
4469;BME280;2247;42.666;23.292;2023-04-01T15:38:12;92912.47;;;17.99;42.14
4469;BME280;2247;42.666;23.292;2023-04-01T15:40:47;92926.09;;;17.94;42.09
4469;BME280;2247;42.666;23.292;2023-04-01T15:43:26;92919.63;;;17.95;41.70
4469;BME280;2247;42.666;23.292;2023-04-01T15:46:08;92927.78;;;17.83;41.52
4469;BME280;2247;42.666;23.292;2023-04-01T15:48:49;93029.00;;;17.63;43.12
4469;BME280;2247;42.666;23.292;2023-04-01T15:51:31;93091.00;;;16.70;46.67
4469;BME280;2247;42.666;23.292;2023-04-01T15:54:23;93105.56;;;15.80;49.17
4469;BME280;2247;42.666;23.292;2023-04-01T15:57:11;93116.31;;;15.35;53.94
4469;BME280;2247;42.666;23.292;2023-04-01T15:59:57;93148.66;;;15.28;55.38
4469;BME280;2247;42.666;23.292;2023-04-01T16:02:31;93135.56;;;14.87;57.81
4469;BME280;2247;42.666;23.292;2023-04-01T16:05:07;93136.50;;;14.70;58.22
4469;BME280;2247;42.666;23.292;2023-04-01T16:07:52;93158.31;;;14.13;60.21
4469;BME280;2247;42.666;23.292;2023-04-01T16:10:37;93163.56;;;13.72;61.81
4469;BME280;2247;42.666;23.292;2023-04-01T16:13:20;93174.66;;;13.65;62.36
4469;BME280;2247;42.666;23.292;2023-04-01T16:15:55;93166.88;;;13.31;63.88
4469;BME280;2247;42.666;23.292;2023-04-01T16:18:46;93191.16;;;13.24;64.35